sensor_id;sensor_type;location;lat;lon;timestamp;temperature;humidity
78571;SHT31;67861;51.966;5.672;2023-10-19T00:02:22;13.6;74.8
78571;SHT31;67861;51.966;5.672;2023-10-19T00:04:50;13.6;74.7
78571;SHT31;67861;51.966;5.672;2023-10-19T00:07:18;13.6;74.8
78571;SHT31;67861;51.966;5.672;2023-10-19T00:09:49;13.7;74.7
78571;SHT31;67861;51.966;5.672;2023-10-19T00:12:20;13.7;74.7
78571;SHT31;67861;51.966;5.672;2023-10-19T00:14:49;13.7;74.7
78571;SHT31;67861;51.966;5.672;2023-10-19T00:17:19;13.7;74.9
78571;SHT31;67861;51.966;5.672;2023-10-19T00:19:48;13.7;74.9
78571;SHT31;67861;51.966;5.672;2023-10-19T00:22:30;13.8;75.2
78571;SHT31;67861;51.966;5.672;2023-10-19T00:25:02;13.8;75.3
78571;SHT31;67861;51.966;5.672;2023-10-19T00:27:31;13.8;75.1
78571;SHT31;67861;51.966;5.672;2023-10-19T00:30:00;13.8;75.1
78571;SHT31;67861;51.966;5.672;2023-10-19T00:32:32;13.8;75.1
78571;SHT31;67861;51.966;5.672;2023-10-19T00:35:05;13.9;75.1
78571;SHT31;67861;51.966;5.672;2023-10-19T00:37:41;13.9;75.2
78571;SHT31;67861;51.966;5.672;2023-10-19T00:40:15;13.9;75.4
78571;SHT31;67861;51.966;5.672;2023-10-19T00:42:48;13.9;75.2
78571;SHT31;67861;51.966;5.672;2023-10-19T00:45:20;14.0;75.1
78571;SHT31;67861;51.966;5.672;2023-10-19T00:47:53;14.0;75.1
78571;SHT31;67861;51.966;5.672;2023-10-19T00:50:21;14.0;75.3
78571;SHT31;67861;51.966;5.672;2023-10-19T00:52:54;14.1;75.1
78571;SHT31;67861;51.966;5.672;2023-10-19T00:55:25;14.1;75.1
78571;SHT31;67861;51.966;5.672;2023-10-19T00:57:55;14.1;75.1
78571;SHT31;67861;51.966;5.672;2023-10-19T01:00:23;14.2;75.0
78571;SHT31;67861;51.966;5.672;2023-10-19T01:03:01;14.2;75.4
78571;SHT31;67861;51.966;5.672;2023-10-19T01:05:31;14.2;75.5
78571;SHT31;67861;51.966;5.672;2023-10-19T01:08:02;14.2;75.5
78571;SHT31;67861;51.966;5.672;2023-10-19T01:10:36;14.3;75.3
78571;SHT31;67861;51.966;5.672;2023-10-19T01:13:05;14.3;75.2
78571;SHT31;67861;51.966;5.672;2023-10-19T01:15:34;14.3;75.0
78571;SHT31;67861;51.966;5.672;2023-10-19T01:18:03;14.4;75.4
78571;SHT31;67861;51.966;5.672;2023-10-19T01:20:33;14.4;75.6
78571;SHT31;67861;51.966;5.672;2023-10-19T01:23:08;14.4;75.6
78571;SHT31;67861;51.966;5.672;2023-10-19T01:25:48;14.4;75.5
78571;SHT31;67861;51.966;5.672;2023-10-19T01:28:24;14.5;75.7
78571;SHT31;67861;51.966;5.672;2023-10-19T01:30:55;14.5;75.7
78571;SHT31;67861;51.966;5.672;2023-10-19T01:33:26;14.5;75.8
78571;SHT31;67861;51.966;5.672;2023-10-19T01:35:57;14.6;75.6
78571;SHT31;67861;51.966;5.672;2023-10-19T01:38:45;14.6;75.6
78571;SHT31;67861;51.966;5.672;2023-10-19T01:41:14;14.6;75.8
78571;SHT31;67861;51.966;5.672;2023-10-19T01:43:46;14.6;76.1
78571;SHT31;67861;51.966;5.672;2023-10-19T01:46:21;14.7;76.0
78571;SHT31;67861;51.966;5.672;2023-10-19T01:48:53;14.7;76.0
78571;SHT31;67861;51.966;5.672;2023-10-19T01:51:25;14.7;76.1
78571;SHT31;67861;51.966;5.672;2023-10-19T01:53:55;14.8;75.9
78571;SHT31;67861;51.966;5.672;2023-10-19T01:56:24;14.8;76.0
78571;SHT31;67861;51.966;5.672;2023-10-19T01:58:53;14.8;76.2
78571;SHT31;67861;51.966;5.672;2023-10-19T02:01:24;14.9;76.3
78571;SHT31;67861;51.966;5.672;2023-10-19T02:03:59;14.9;76.2
78571;SHT31;67861;51.966;5.672;2023-10-19T02:06:30;14.9;76.1
78571;SHT31;67861;51.966;5.672;2023-10-19T02:09:04;15.0;76.1
78571;SHT31;67861;51.966;5.672;2023-10-19T02:11:42;15.0;76.1
78571;SHT31;67861;51.966;5.672;2023-10-19T02:14:13;15.1;76.0
78571;SHT31;67861;51.966;5.672;2023-10-19T02:16:43;15.1;76.0
78571;SHT31;67861;51.966;5.672;2023-10-19T02:19:13;15.1;75.9
78571;SHT31;67861;51.966;5.672;2023-10-19T02:21:42;15.2;75.9
78571;SHT31;67861;51.966;5.672;2023-10-19T02:24:14;15.2;75.9
78571;SHT31;67861;51.966;5.672;2023-10-19T02:26:44;15.2;75.9
78571;SHT31;67861;51.966;5.672;2023-10-19T02:29:13;15.3;75.8
78571;SHT31;67861;51.966;5.672;2023-10-19T02:31:43;15.3;75.9
78571;SHT31;67861;51.966;5.672;2023-10-19T02:34:12;15.3;75.7
78571;SHT31;67861;51.966;5.672;2023-10-19T02:36:44;15.4;75.7
78571;SHT31;67861;51.966;5.672;2023-10-19T02:39:14;15.4;75.7
78571;SHT31;67861;51.966;5.672;2023-10-19T02:41:46;15.4;75.8
78571;SHT31;67861;51.966;5.672;2023-10-19T02:44:16;15.4;75.8
78571;SHT31;67861;51.966;5.672;2023-10-19T02:46:50;15.5;76.0
78571;SHT31;67861;51.966;5.672;2023-10-19T02:49:24;15.5;76.2
78571;SHT31;67861;51.966;5.672;2023-10-19T02:51:53;15.5;76.2
78571;SHT31;67861;51.966;5.672;2023-10-19T02:54:27;15.6;76.1
78571;SHT31;67861;51.966;5.672;2023-10-19T02:56:59;15.6;76.2
78571;SHT31;67861;51.966;5.672;2023-10-19T02:59:28;15.6;76.1
78571;SHT31;67861;51.966;5.672;2023-10-19T03:02:00;15.7;76.1
78571;SHT31;67861;51.966;5.672;2023-10-19T03:04:35;15.7;75.8
78571;SHT31;67861;51.966;5.672;2023-10-19T03:07:04;15.7;75.7
78571;SHT31;67861;51.966;5.672;2023-10-19T03:09:33;15.8;75.6
78571;SHT31;67861;51.966;5.672;2023-10-19T03:12:05;15.8;75.5
78571;SHT31;67861;51.966;5.672;2023-10-19T03:14:38;15.8;75.5
78571;SHT31;67861;51.966;5.672;2023-10-19T03:17:07;15.8;75.5
78571;SHT31;67861;51.966;5.672;2023-10-19T03:19:36;15.9;75.5
78571;SHT31;67861;51.966;5.672;2023-10-19T03:22:05;15.9;75.5
78571;SHT31;67861;51.966;5.672;2023-10-19T03:24:37;15.9;75.7
78571;SHT31;67861;51.966;5.672;2023-10-19T03:27:08;16.0;75.8
78571;SHT31;67861;51.966;5.672;2023-10-19T03:29:42;16.0;76.3
78571;SHT31;67861;51.966;5.672;2023-10-19T03:32:15;16.0;76.6
78571;SHT31;67861;51.966;5.672;2023-10-19T03:34:45;16.0;76.7
78571;SHT31;67861;51.966;5.672;2023-10-19T03:37:16;16.1;76.7
78571;SHT31;67861;51.966;5.672;2023-10-19T03:39:46;16.1;76.6
78571;SHT31;67861;51.966;5.672;2023-10-19T03:42:15;16.1;76.7
78571;SHT31;67861;51.966;5.672;2023-10-19T03:44:47;16.2;76.4
78571;SHT31;67861;51.966;5.672;2023-10-19T03:47:20;16.2;76.3
78571;SHT31;67861;51.966;5.672;2023-10-19T03:49:54;16.3;76.4
78571;SHT31;67861;51.966;5.672;2023-10-19T03:52:23;16.3;76.1
78571;SHT31;67861;51.966;5.672;2023-10-19T03:54:56;16.4;75.8
78571;SHT31;67861;51.966;5.672;2023-10-19T03:57:25;16.4;76.0
78571;SHT31;67861;51.966;5.672;2023-10-19T03:59:56;16.5;75.8
78571;SHT31;67861;51.966;5.672;2023-10-19T04:02:26;16.5;75.7
78571;SHT31;67861;51.966;5.672;2023-10-19T04:04:55;16.5;75.6
78571;SHT31;67861;51.966;5.672;2023-10-19T04:07:27;16.6;75.5
78571;SHT31;67861;51.966;5.672;2023-10-19T04:09:57;16.6;75.7
78571;SHT31;67861;51.966;5.672;2023-10-19T04:12:36;16.6;75.3
78571;SHT31;67861;51.966;5.672;2023-10-19T04:15:09;16.7;75.1
78571;SHT31;67861;51.966;5.672;2023-10-19T04:17:40;16.7;75.2
78571;SHT31;67861;51.966;5.672;2023-10-19T04:20:10;16.7;75.0
78571;SHT31;67861;51.966;5.672;2023-10-19T04:22:49;16.8;75.1
78571;SHT31;67861;51.966;5.672;2023-10-19T04:25:18;16.8;74.7
78571;SHT31;67861;51.966;5.672;2023-10-19T04:27:47;16.8;75.0
78571;SHT31;67861;51.966;5.672;2023-10-19T04:30:17;16.8;74.8
78571;SHT31;67861;51.966;5.672;2023-10-19T04:32:50;16.9;74.6
78571;SHT31;67861;51.966;5.672;2023-10-19T04:35:19;16.9;74.6
78571;SHT31;67861;51.966;5.672;2023-10-19T04:37:49;16.9;74.6
78571;SHT31;67861;51.966;5.672;2023-10-19T04:40:19;16.9;74.5
78571;SHT31;67861;51.966;5.672;2023-10-19T04:42:51;16.9;74.3
78571;SHT31;67861;51.966;5.672;2023-10-19T04:45:20;17.0;74.0
78571;SHT31;67861;51.966;5.672;2023-10-19T04:47:51;17.0;73.8
78571;SHT31;67861;51.966;5.672;2023-10-19T04:50:21;17.0;73.5
78571;SHT31;67861;51.966;5.672;2023-10-19T04:52:50;17.0;73.2
78571;SHT31;67861;51.966;5.672;2023-10-19T04:55:19;17.0;72.8
78571;SHT31;67861;51.966;5.672;2023-10-19T04:57:47;17.0;72.7
78571;SHT31;67861;51.966;5.672;2023-10-19T05:00:17;17.0;72.3
78571;SHT31;67861;51.966;5.672;2023-10-19T05:02:47;17.0;72.1
78571;SHT31;67861;51.966;5.672;2023-10-19T05:05:18;17.0;71.7
78571;SHT31;67861;51.966;5.672;2023-10-19T05:07:48;17.0;71.5
78571;SHT31;67861;51.966;5.672;2023-10-19T05:10:17;17.0;71.2
78571;SHT31;67861;51.966;5.672;2023-10-19T05:12:46;17.0;71.4
78571;SHT31;67861;51.966;5.672;2023-10-19T05:15:15;17.0;71.4
78571;SHT31;67861;51.966;5.672;2023-10-19T05:17:44;17.0;71.5
78571;SHT31;67861;51.966;5.672;2023-10-19T05:20:14;17.0;71.7
78571;SHT31;67861;51.966;5.672;2023-10-19T05:22:42;17.0;71.6
78571;SHT31;67861;51.966;5.672;2023-10-19T05:25:11;16.9;71.7
78571;SHT31;67861;51.966;5.672;2023-10-19T05:27:40;16.9;71.7
78571;SHT31;67861;51.966;5.672;2023-10-19T05:30:09;16.9;71.6
78571;SHT31;67861;51.966;5.672;2023-10-19T05:32:38;16.9;71.8
78571;SHT31;67861;51.966;5.672;2023-10-19T05:35:07;16.9;72.0
78571;SHT31;67861;51.966;5.672;2023-10-19T05:37:39;16.9;72.2
78571;SHT31;67861;51.966;5.672;2023-10-19T05:40:11;16.9;72.2
78571;SHT31;67861;51.966;5.672;2023-10-19T05:42:41;16.9;72.4
78571;SHT31;67861;51.966;5.672;2023-10-19T05:45:10;16.9;72.6
78571;SHT31;67861;51.966;5.672;2023-10-19T05:47:42;16.9;72.5
78571;SHT31;67861;51.966;5.672;2023-10-19T05:50:11;16.9;72.8
78571;SHT31;67861;51.966;5.672;2023-10-19T05:52:42;16.9;72.6
78571;SHT31;67861;51.966;5.672;2023-10-19T05:55:11;16.9;72.7
78571;SHT31;67861;51.966;5.672;2023-10-19T05:57:40;16.9;72.6
78571;SHT31;67861;51.966;5.672;2023-10-19T06:00:11;16.9;72.7
78571;SHT31;67861;51.966;5.672;2023-10-19T06:02:45;16.9;72.8
78571;SHT31;67861;51.966;5.672;2023-10-19T06:05:18;16.9;72.8
78571;SHT31;67861;51.966;5.672;2023-10-19T06:07:48;17.0;72.9
78571;SHT31;67861;51.966;5.672;2023-10-19T06:10:19;17.0;73.2
78571;SHT31;67861;51.966;5.672;2023-10-19T06:12:50;17.0;72.9
78571;SHT31;67861;51.966;5.672;2023-10-19T06:15:21;17.0;73.1
78571;SHT31;67861;51.966;5.672;2023-10-19T06:17:51;17.0;73.1
78571;SHT31;67861;51.966;5.672;2023-10-19T06:20:20;17.0;73.1
78571;SHT31;67861;51.966;5.672;2023-10-19T06:22:55;17.0;73.1
78571;SHT31;67861;51.966;5.672;2023-10-19T06:25:29;17.0;73.1
78571;SHT31;67861;51.966;5.672;2023-10-19T06:27:57;17.0;73.1
78571;SHT31;67861;51.966;5.672;2023-10-19T06:30:26;17.0;73.2
78571;SHT31;67861;51.966;5.672;2023-10-19T06:32:55;17.0;73.2
78571;SHT31;67861;51.966;5.672;2023-10-19T06:35:28;17.0;73.2
78571;SHT31;67861;51.966;5.672;2023-10-19T06:37:58;17.1;73.1
78571;SHT31;67861;51.966;5.672;2023-10-19T06:40:27;17.1;72.9
78571;SHT31;67861;51.966;5.672;2023-10-19T06:42:57;17.1;72.9
78571;SHT31;67861;51.966;5.672;2023-10-19T06:45:29;17.1;73.1
78571;SHT31;67861;51.966;5.672;2023-10-19T06:47:58;17.1;73.0
78571;SHT31;67861;51.966;5.672;2023-10-19T06:50:27;17.1;73.0
78571;SHT31;67861;51.966;5.672;2023-10-19T06:52:58;17.1;73.1
78571;SHT31;67861;51.966;5.672;2023-10-19T06:55:26;17.1;73.1
78571;SHT31;67861;51.966;5.672;2023-10-19T06:57:55;17.1;73.2
78571;SHT31;67861;51.966;5.672;2023-10-19T07:00:24;17.2;73.1
78571;SHT31;67861;51.966;5.672;2023-10-19T07:02:56;17.2;73.2
78571;SHT31;67861;51.966;5.672;2023-10-19T07:05:26;17.2;72.9
78571;SHT31;67861;51.966;5.672;2023-10-19T07:07:57;17.2;73.0
78571;SHT31;67861;51.966;5.672;2023-10-19T07:10:25;17.2;73.0
78571;SHT31;67861;51.966;5.672;2023-10-19T07:12:55;17.2;73.1
78571;SHT31;67861;51.966;5.672;2023-10-19T07:15:24;17.2;73.1
78571;SHT31;67861;51.966;5.672;2023-10-19T07:17:54;17.2;73.2
78571;SHT31;67861;51.966;5.672;2023-10-19T07:20:23;17.2;73.1
78571;SHT31;67861;51.966;5.672;2023-10-19T07:22:56;17.2;73.1
78571;SHT31;67861;51.966;5.672;2023-10-19T07:25:26;17.3;73.4
78571;SHT31;67861;51.966;5.672;2023-10-19T07:27:55;17.3;73.5
78571;SHT31;67861;51.966;5.672;2023-10-19T07:30:26;17.3;73.4
78571;SHT31;67861;51.966;5.672;2023-10-19T07:32:54;17.3;73.4
78571;SHT31;67861;51.966;5.672;2023-10-19T07:35:25;17.3;73.4
78571;SHT31;67861;51.966;5.672;2023-10-19T07:37:55;17.3;73.4
78571;SHT31;67861;51.966;5.672;2023-10-19T07:40:23;17.3;73.4
78571;SHT31;67861;51.966;5.672;2023-10-19T07:42:52;17.3;73.5
78571;SHT31;67861;51.966;5.672;2023-10-19T07:45:21;17.3;73.7
78571;SHT31;67861;51.966;5.672;2023-10-19T07:47:51;17.4;73.6
78571;SHT31;67861;51.966;5.672;2023-10-19T07:50:22;17.4;73.6
78571;SHT31;67861;51.966;5.672;2023-10-19T07:52:52;17.4;73.7
78571;SHT31;67861;51.966;5.672;2023-10-19T07:55:22;17.4;73.7
78571;SHT31;67861;51.966;5.672;2023-10-19T07:57:51;17.4;73.8
78571;SHT31;67861;51.966;5.672;2023-10-19T08:00:21;17.4;73.8
78571;SHT31;67861;51.966;5.672;2023-10-19T08:02:50;17.4;73.7
78571;SHT31;67861;51.966;5.672;2023-10-19T08:05:20;17.5;73.7
78571;SHT31;67861;51.966;5.672;2023-10-19T08:07:48;17.5;73.8
78571;SHT31;67861;51.966;5.672;2023-10-19T08:10:19;17.5;73.7
78571;SHT31;67861;51.966;5.672;2023-10-19T08:12:48;17.5;73.7
78571;SHT31;67861;51.966;5.672;2023-10-19T08:15:19;17.5;73.6
78571;SHT31;67861;51.966;5.672;2023-10-19T08:17:48;17.5;73.7
78571;SHT31;67861;51.966;5.672;2023-10-19T08:20:20;17.6;73.6
78571;SHT31;67861;51.966;5.672;2023-10-19T08:22:56;17.6;73.6
78571;SHT31;67861;51.966;5.672;2023-10-19T08:25:26;17.6;73.7
78571;SHT31;67861;51.966;5.672;2023-10-19T08:27:55;17.6;73.7
78571;SHT31;67861;51.966;5.672;2023-10-19T08:30:24;17.6;73.9
78571;SHT31;67861;51.966;5.672;2023-10-19T08:32:53;17.6;73.9
78571;SHT31;67861;51.966;5.672;2023-10-19T08:35:24;17.6;73.9
78571;SHT31;67861;51.966;5.672;2023-10-19T08:37:54;17.7;74.0
78571;SHT31;67861;51.966;5.672;2023-10-19T08:40:25;17.7;74.1
78571;SHT31;67861;51.966;5.672;2023-10-19T08:42:55;17.7;74.2
78571;SHT31;67861;51.966;5.672;2023-10-19T08:45:24;17.7;74.1
78571;SHT31;67861;51.966;5.672;2023-10-19T08:47:56;17.7;74.2
78571;SHT31;67861;51.966;5.672;2023-10-19T08:50:27;17.8;74.1
78571;SHT31;67861;51.966;5.672;2023-10-19T08:52:58;17.8;74.3
78571;SHT31;67861;51.966;5.672;2023-10-19T08:55:27;17.8;74.4
78571;SHT31;67861;51.966;5.672;2023-10-19T08:57:56;17.8;74.5
78571;SHT31;67861;51.966;5.672;2023-10-19T09:00:26;17.8;74.3
78571;SHT31;67861;51.966;5.672;2023-10-19T09:03:00;17.9;74.8
78571;SHT31;67861;51.966;5.672;2023-10-19T09:05:31;17.9;74.6
78571;SHT31;67861;51.966;5.672;2023-10-19T09:08:01;17.9;74.7
78571;SHT31;67861;51.966;5.672;2023-10-19T09:10:32;18.0;74.7
78571;SHT31;67861;51.966;5.672;2023-10-19T09:13:04;18.0;74.8
78571;SHT31;67861;51.966;5.672;2023-10-19T09:15:36;18.0;74.8
78571;SHT31;67861;51.966;5.672;2023-10-19T09:18:14;18.1;74.5
78571;SHT31;67861;51.966;5.672;2023-10-19T09:20:44;18.1;74.4
78571;SHT31;67861;51.966;5.672;2023-10-19T09:23:23;18.1;74.4
78571;SHT31;67861;51.966;5.672;2023-10-19T09:25:56;18.2;74.0
78571;SHT31;67861;51.966;5.672;2023-10-19T09:28:26;18.2;74.6
78571;SHT31;67861;51.966;5.672;2023-10-19T09:30:55;18.2;74.7
78571;SHT31;67861;51.966;5.672;2023-10-19T09:33:24;18.3;75.4
78571;SHT31;67861;51.966;5.672;2023-10-19T09:35:55;18.3;75.4
78571;SHT31;67861;51.966;5.672;2023-10-19T09:38:27;18.4;75.7
78571;SHT31;67861;51.966;5.672;2023-10-19T09:40:56;18.4;76.0
78571;SHT31;67861;51.966;5.672;2023-10-19T09:43:31;18.5;75.9
78571;SHT31;67861;51.966;5.672;2023-10-19T09:46:06;18.6;75.4
78571;SHT31;67861;51.966;5.672;2023-10-19T09:48:39;18.6;74.7
78571;SHT31;67861;51.966;5.672;2023-10-19T09:51:11;18.7;75.0
78571;SHT31;67861;51.966;5.672;2023-10-19T09:53:40;18.8;75.4
78571;SHT31;67861;51.966;5.672;2023-10-19T09:56:13;18.8;74.6
78571;SHT31;67861;51.966;5.672;2023-10-19T09:58:46;18.9;74.3
78571;SHT31;67861;51.966;5.672;2023-10-19T10:01:16;19.0;74.8
78571;SHT31;67861;51.966;5.672;2023-10-19T10:03:49;19.1;74.4
78571;SHT31;67861;51.966;5.672;2023-10-19T10:06:29;19.2;73.6
78571;SHT31;67861;51.966;5.672;2023-10-19T10:08:59;19.2;73.0
78571;SHT31;67861;51.966;5.672;2023-10-19T10:11:29;19.3;73.4
78571;SHT31;67861;51.966;5.672;2023-10-19T10:13:59;19.4;73.0
78571;SHT31;67861;51.966;5.672;2023-10-19T10:16:28;19.4;73.2
78571;SHT31;67861;51.966;5.672;2023-10-19T10:18:59;19.5;73.0
78571;SHT31;67861;51.966;5.672;2023-10-19T10:21:29;19.6;72.0
78571;SHT31;67861;51.966;5.672;2023-10-19T10:24:03;19.6;72.0
78571;SHT31;67861;51.966;5.672;2023-10-19T10:26:58;19.7;71.4
78571;SHT31;67861;51.966;5.672;2023-10-19T10:29:29;19.7;70.5
78571;SHT31;67861;51.966;5.672;2023-10-19T10:31:58;19.8;70.6
78571;SHT31;67861;51.966;5.672;2023-10-19T10:34:47;19.8;70.8
78571;SHT31;67861;51.966;5.672;2023-10-19T10:37:16;19.9;71.1
78571;SHT31;67861;51.966;5.672;2023-10-19T10:39:45;19.9;70.8
78571;SHT31;67861;51.966;5.672;2023-10-19T10:42:13;19.9;70.3
78571;SHT31;67861;51.966;5.672;2023-10-19T10:44:44;20.0;70.6
78571;SHT31;67861;51.966;5.672;2023-10-19T10:47:17;20.0;70.4
78571;SHT31;67861;51.966;5.672;2023-10-19T10:49:49;20.0;69.8
78571;SHT31;67861;51.966;5.672;2023-10-19T10:52:31;20.1;69.7
78571;SHT31;67861;51.966;5.672;2023-10-19T10:55:10;20.1;69.3
78571;SHT31;67861;51.966;5.672;2023-10-19T10:57:40;20.1;69.3
78571;SHT31;67861;51.966;5.672;2023-10-19T11:00:10;20.2;69.4
78571;SHT31;67861;51.966;5.672;2023-10-19T11:02:43;20.2;69.3
78571;SHT31;67861;51.966;5.672;2023-10-19T11:05:14;20.2;69.8
78571;SHT31;67861;51.966;5.672;2023-10-19T11:08:05;20.2;70.5
78571;SHT31;67861;51.966;5.672;2023-10-19T11:10:36;20.2;70.4
78571;SHT31;67861;51.966;5.672;2023-10-19T11:13:06;20.3;70.9
78571;SHT31;67861;51.966;5.672;2023-10-19T11:15:36;20.3;71.3
78571;SHT31;67861;51.966;5.672;2023-10-19T11:18:06;20.4;71.3
78571;SHT31;67861;51.966;5.672;2023-10-19T11:20:36;20.4;71.0
78571;SHT31;67861;51.966;5.672;2023-10-19T11:23:04;20.5;70.7
78571;SHT31;67861;51.966;5.672;2023-10-19T11:25:33;20.6;69.8
78571;SHT31;67861;51.966;5.672;2023-10-19T11:28:01;20.6;69.1
78571;SHT31;67861;51.966;5.672;2023-10-19T11:30:38;20.7;69.3
78571;SHT31;67861;51.966;5.672;2023-10-19T11:33:07;20.7;69.3
78571;SHT31;67861;51.966;5.672;2023-10-19T11:35:35;20.8;68.5
78571;SHT31;67861;51.966;5.672;2023-10-19T11:38:06;20.8;68.6
78571;SHT31;67861;51.966;5.672;2023-10-19T11:40:34;20.9;67.9
78571;SHT31;67861;51.966;5.672;2023-10-19T11:43:03;20.9;66.7
78571;SHT31;67861;51.966;5.672;2023-10-19T11:45:31;20.9;67.0
78571;SHT31;67861;51.966;5.672;2023-10-19T11:48:01;21.0;67.0
78571;SHT31;67861;51.966;5.672;2023-10-19T11:50:30;21.0;66.4
78571;SHT31;67861;51.966;5.672;2023-10-19T11:53:01;21.0;67.3
78571;SHT31;67861;51.966;5.672;2023-10-19T11:55:31;21.1;67.2
78571;SHT31;67861;51.966;5.672;2023-10-19T11:58:02;21.1;68.0
78571;SHT31;67861;51.966;5.672;2023-10-19T12:00:30;21.2;67.5
78571;SHT31;67861;51.966;5.672;2023-10-19T12:03:04;21.2;66.9
78571;SHT31;67861;51.966;5.672;2023-10-19T12:05:33;21.3;65.3
78571;SHT31;67861;51.966;5.672;2023-10-19T12:08:03;21.3;65.0
78571;SHT31;67861;51.966;5.672;2023-10-19T12:10:33;21.3;65.4
78571;SHT31;67861;51.966;5.672;2023-10-19T12:13:03;21.4;64.8
78571;SHT31;67861;51.966;5.672;2023-10-19T12:15:32;21.4;64.6
78571;SHT31;67861;51.966;5.672;2023-10-19T12:18:01;21.4;64.6
78571;SHT31;67861;51.966;5.672;2023-10-19T12:20:30;21.4;64.6
78571;SHT31;67861;51.966;5.672;2023-10-19T12:23:00;21.4;64.4
78571;SHT31;67861;51.966;5.672;2023-10-19T12:25:31;21.4;64.8
78571;SHT31;67861;51.966;5.672;2023-10-19T12:28:00;21.4;64.5
78571;SHT31;67861;51.966;5.672;2023-10-19T12:30:30;21.4;65.2
78571;SHT31;67861;51.966;5.672;2023-10-19T12:33:03;21.4;64.7
78571;SHT31;67861;51.966;5.672;2023-10-19T12:35:36;21.4;64.6
78571;SHT31;67861;51.966;5.672;2023-10-19T12:38:18;21.4;65.0
78571;SHT31;67861;51.966;5.672;2023-10-19T12:40:48;21.4;64.5
78571;SHT31;67861;51.966;5.672;2023-10-19T12:43:18;21.4;63.9
78571;SHT31;67861;51.966;5.672;2023-10-19T12:45:49;21.4;64.2
78571;SHT31;67861;51.966;5.672;2023-10-19T12:48:24;21.4;64.5
78571;SHT31;67861;51.966;5.672;2023-10-19T12:50:57;21.4;64.4
78571;SHT31;67861;51.966;5.672;2023-10-19T12:53:25;21.4;64.5
78571;SHT31;67861;51.966;5.672;2023-10-19T12:55:53;21.4;64.3
78571;SHT31;67861;51.966;5.672;2023-10-19T12:58:22;21.3;64.1
78571;SHT31;67861;51.966;5.672;2023-10-19T13:00:50;21.3;64.5
78571;SHT31;67861;51.966;5.672;2023-10-19T13:03:20;21.3;64.7
78571;SHT31;67861;51.966;5.672;2023-10-19T13:05:50;21.3;64.1
78571;SHT31;67861;51.966;5.672;2023-10-19T13:08:19;21.3;63.9
78571;SHT31;67861;51.966;5.672;2023-10-19T13:10:48;21.2;64.3
78571;SHT31;67861;51.966;5.672;2023-10-19T13:13:17;21.2;64.7
78571;SHT31;67861;51.966;5.672;2023-10-19T13:15:49;21.2;65.1
78571;SHT31;67861;51.966;5.672;2023-10-19T13:18:17;21.1;65.7
78571;SHT31;67861;51.966;5.672;2023-10-19T13:20:48;21.1;66.2
78571;SHT31;67861;51.966;5.672;2023-10-19T13:23:19;21.1;66.2
78571;SHT31;67861;51.966;5.672;2023-10-19T13:25:50;21.0;65.9
78571;SHT31;67861;51.966;5.672;2023-10-19T13:28:21;21.0;66.2
78571;SHT31;67861;51.966;5.672;2023-10-19T13:30:51;21.0;66.1
78571;SHT31;67861;51.966;5.672;2023-10-19T13:33:22;20.9;66.4
78571;SHT31;67861;51.966;5.672;2023-10-19T13:35:51;20.9;66.8
78571;SHT31;67861;51.966;5.672;2023-10-19T13:38:19;20.9;66.8
78571;SHT31;67861;51.966;5.672;2023-10-19T13:40:48;20.9;67.0
78571;SHT31;67861;51.966;5.672;2023-10-19T13:43:18;20.8;67.4
78571;SHT31;67861;51.966;5.672;2023-10-19T13:45:48;20.8;67.6
78571;SHT31;67861;51.966;5.672;2023-10-19T13:48:19;20.8;67.9
78571;SHT31;67861;51.966;5.672;2023-10-19T13:50:50;20.8;67.6
78571;SHT31;67861;51.966;5.672;2023-10-19T13:53:22;20.8;67.6
78571;SHT31;67861;51.966;5.672;2023-10-19T13:55:50;20.8;68.0
78571;SHT31;67861;51.966;5.672;2023-10-19T13:58:19;20.8;68.3
78571;SHT31;67861;51.966;5.672;2023-10-19T14:00:52;20.8;69.2
78571;SHT31;67861;51.966;5.672;2023-10-19T14:03:20;20.8;68.6
78571;SHT31;67861;51.966;5.672;2023-10-19T14:05:49;20.8;68.5
78571;SHT31;67861;51.966;5.672;2023-10-19T14:08:19;20.8;68.5
78571;SHT31;67861;51.966;5.672;2023-10-19T14:10:48;20.7;68.0
78571;SHT31;67861;51.966;5.672;2023-10-19T14:13:17;20.7;68.0
78571;SHT31;67861;51.966;5.672;2023-10-19T14:15:45;20.7;68.3
78571;SHT31;67861;51.966;5.672;2023-10-19T14:18:16;20.7;68.0
78571;SHT31;67861;51.966;5.672;2023-10-19T14:20:44;20.7;68.2
78571;SHT31;67861;51.966;5.672;2023-10-19T14:23:15;20.7;68.1
78571;SHT31;67861;51.966;5.672;2023-10-19T14:25:43;20.6;68.3
78571;SHT31;67861;51.966;5.672;2023-10-19T14:28:12;20.6;68.3
78571;SHT31;67861;51.966;5.672;2023-10-19T14:30:40;20.6;68.4
78571;SHT31;67861;51.966;5.672;2023-10-19T14:33:08;20.6;68.5
78571;SHT31;67861;51.966;5.672;2023-10-19T14:35:38;20.5;68.7
78571;SHT31;67861;51.966;5.672;2023-10-19T14:38:08;20.5;68.8
78571;SHT31;67861;51.966;5.672;2023-10-19T14:40:39;20.5;68.9
78571;SHT31;67861;51.966;5.672;2023-10-19T14:43:10;20.5;68.8
78571;SHT31;67861;51.966;5.672;2023-10-19T14:45:40;20.4;69.0
78571;SHT31;67861;51.966;5.672;2023-10-19T14:48:10;20.4;69.2
78571;SHT31;67861;51.966;5.672;2023-10-19T14:50:42;20.4;69.2
78571;SHT31;67861;51.966;5.672;2023-10-19T14:53:11;20.4;69.2
78571;SHT31;67861;51.966;5.672;2023-10-19T14:55:40;20.3;69.2
78571;SHT31;67861;51.966;5.672;2023-10-19T14:58:08;20.3;69.3
78571;SHT31;67861;51.966;5.672;2023-10-19T15:00:36;20.3;69.4
78571;SHT31;67861;51.966;5.672;2023-10-19T15:03:09;20.3;69.4
78571;SHT31;67861;51.966;5.672;2023-10-19T15:05:37;20.2;69.3
78571;SHT31;67861;51.966;5.672;2023-10-19T15:08:07;20.2;69.2
78571;SHT31;67861;51.966;5.672;2023-10-19T15:10:42;20.2;69.5
78571;SHT31;67861;51.966;5.672;2023-10-19T15:13:10;20.1;69.3
78571;SHT31;67861;51.966;5.672;2023-10-19T15:15:39;20.1;69.6
78571;SHT31;67861;51.966;5.672;2023-10-19T15:18:07;20.1;69.6
78571;SHT31;67861;51.966;5.672;2023-10-19T15:20:36;20.0;69.6
78571;SHT31;67861;51.966;5.672;2023-10-19T15:23:05;20.0;69.7
78571;SHT31;67861;51.966;5.672;2023-10-19T15:25:35;20.0;69.8
78571;SHT31;67861;51.966;5.672;2023-10-19T15:28:08;19.9;69.8
78571;SHT31;67861;51.966;5.672;2023-10-19T15:30:37;19.9;69.9
78571;SHT31;67861;51.966;5.672;2023-10-19T15:33:06;19.9;70.2
78571;SHT31;67861;51.966;5.672;2023-10-19T15:35:34;19.8;70.3
78571;SHT31;67861;51.966;5.672;2023-10-19T15:38:04;19.8;70.5
78571;SHT31;67861;51.966;5.672;2023-10-19T15:40:32;19.8;70.5
78571;SHT31;67861;51.966;5.672;2023-10-19T15:43:01;19.8;70.9
78571;SHT31;67861;51.966;5.672;2023-10-19T15:45:29;19.8;71.1
78571;SHT31;67861;51.966;5.672;2023-10-19T15:48:01;19.7;71.1
78571;SHT31;67861;51.966;5.672;2023-10-19T15:50:29;19.7;71.2
78571;SHT31;67861;51.966;5.672;2023-10-19T15:53:00;19.7;71.4
78571;SHT31;67861;51.966;5.672;2023-10-19T15:55:29;19.7;71.3
78571;SHT31;67861;51.966;5.672;2023-10-19T15:57:59;19.7;71.3
78571;SHT31;67861;51.966;5.672;2023-10-19T16:00:28;19.7;71.0
78571;SHT31;67861;51.966;5.672;2023-10-19T16:02:58;19.7;70.9
78571;SHT31;67861;51.966;5.672;2023-10-19T16:05:26;19.7;70.7
78571;SHT31;67861;51.966;5.672;2023-10-19T16:07:56;19.7;70.6
78571;SHT31;67861;51.966;5.672;2023-10-19T16:10:25;19.7;70.4
78571;SHT31;67861;51.966;5.672;2023-10-19T16:12:53;19.7;70.4
78571;SHT31;67861;51.966;5.672;2023-10-19T16:15:23;19.6;70.2
78571;SHT31;67861;51.966;5.672;2023-10-19T16:17:52;19.6;70.2
78571;SHT31;67861;51.966;5.672;2023-10-19T16:20:21;19.6;70.3
78571;SHT31;67861;51.966;5.672;2023-10-19T16:22:51;19.6;70.3
78571;SHT31;67861;51.966;5.672;2023-10-19T16:25:23;19.5;70.3